sensor_id;sensor_type;location;lat;lon;timestamp;temperature;humidity
19665;DHT22;9980;51.020;7.772;2023-08-20T00:01:29;21.90;99.90
19665;DHT22;9980;51.020;7.772;2023-08-20T00:03:57;21.80;99.90
19665;DHT22;9980;51.020;7.772;2023-08-20T00:06:25;21.80;99.90
19665;DHT22;9980;51.020;7.772;2023-08-20T00:08:52;21.80;99.90
19665;DHT22;9980;51.020;7.772;2023-08-20T00:11:19;21.70;99.90
19665;DHT22;9980;51.020;7.772;2023-08-20T00:13:46;21.70;99.90
19665;DHT22;9980;51.020;7.772;2023-08-20T00:16:13;21.70;99.90
19665;DHT22;9980;51.020;7.772;2023-08-20T00:18:41;21.70;99.90
19665;DHT22;9980;51.020;7.772;2023-08-20T00:21:08;21.70;99.90
19665;DHT22;9980;51.020;7.772;2023-08-20T00:23:36;21.60;99.90
19665;DHT22;9980;51.020;7.772;2023-08-20T00:26:04;21.60;99.90
19665;DHT22;9980;51.020;7.772;2023-08-20T00:28:31;21.60;99.90
19665;DHT22;9980;51.020;7.772;2023-08-20T00:31:03;21.60;99.90
19665;DHT22;9980;51.020;7.772;2023-08-20T00:33:31;21.50;99.90
19665;DHT22;9980;51.020;7.772;2023-08-20T00:35:58;21.50;99.90
19665;DHT22;9980;51.020;7.772;2023-08-20T00:38:25;21.50;99.90
19665;DHT22;9980;51.020;7.772;2023-08-20T00:40:53;21.50;99.90
19665;DHT22;9980;51.020;7.772;2023-08-20T00:43:20;21.40;99.90
19665;DHT22;9980;51.020;7.772;2023-08-20T00:45:48;21.40;99.90
19665;DHT22;9980;51.020;7.772;2023-08-20T00:48:15;21.40;99.90
19665;DHT22;9980;51.020;7.772;2023-08-20T00:50:44;21.40;99.90
19665;DHT22;9980;51.020;7.772;2023-08-20T00:53:13;21.30;99.90
19665;DHT22;9980;51.020;7.772;2023-08-20T00:55:42;21.30;99.90
19665;DHT22;9980;51.020;7.772;2023-08-20T00:58:10;21.30;99.90
19665;DHT22;9980;51.020;7.772;2023-08-20T01:00:38;21.30;99.90
19665;DHT22;9980;51.020;7.772;2023-08-20T01:03:05;21.20;99.90
19665;DHT22;9980;51.020;7.772;2023-08-20T01:05:34;21.20;99.90
19665;DHT22;9980;51.020;7.772;2023-08-20T01:11:28;21.10;99.90
19665;DHT22;9980;51.020;7.772;2023-08-20T01:13:59;21.10;99.90
19665;DHT22;9980;51.020;7.772;2023-08-20T01:16:27;21.10;99.90
19665;DHT22;9980;51.020;7.772;2023-08-20T01:18:54;21.10;99.90
19665;DHT22;9980;51.020;7.772;2023-08-20T01:21:39;21.00;99.90
19665;DHT22;9980;51.020;7.772;2023-08-20T01:24:17;21.00;99.90
19665;DHT22;9980;51.020;7.772;2023-08-20T01:30:09;21.00;99.90
19665;DHT22;9980;51.020;7.772;2023-08-20T01:32:37;20.90;99.90
19665;DHT22;9980;51.020;7.772;2023-08-20T01:35:13;20.90;99.90
19665;DHT22;9980;51.020;7.772;2023-08-20T01:37:40;20.90;99.90
19665;DHT22;9980;51.020;7.772;2023-08-20T01:40:09;20.80;99.90
19665;DHT22;9980;51.020;7.772;2023-08-20T01:42:37;20.80;99.90
19665;DHT22;9980;51.020;7.772;2023-08-20T01:45:05;20.80;99.90
19665;DHT22;9980;51.020;7.772;2023-08-20T01:47:33;20.80;99.90
19665;DHT22;9980;51.020;7.772;2023-08-20T01:50:01;20.80;99.90
19665;DHT22;9980;51.020;7.772;2023-08-20T01:52:32;20.80;99.90
19665;DHT22;9980;51.020;7.772;2023-08-20T01:55:00;20.70;99.90
19665;DHT22;9980;51.020;7.772;2023-08-20T01:57:27;20.70;99.90
19665;DHT22;9980;51.020;7.772;2023-08-20T01:59:54;20.70;99.90
19665;DHT22;9980;51.020;7.772;2023-08-20T02:02:22;20.70;99.90
19665;DHT22;9980;51.020;7.772;2023-08-20T02:04:49;20.70;99.90
19665;DHT22;9980;51.020;7.772;2023-08-20T02:07:16;20.60;99.90
19665;DHT22;9980;51.020;7.772;2023-08-20T02:09:45;20.60;99.90
19665;DHT22;9980;51.020;7.772;2023-08-20T02:12:12;20.60;99.90
19665;DHT22;9980;51.020;7.772;2023-08-20T02:14:39;20.60;99.90
19665;DHT22;9980;51.020;7.772;2023-08-20T02:17:06;20.60;99.90
19665;DHT22;9980;51.020;7.772;2023-08-20T02:19:33;20.60;99.90
19665;DHT22;9980;51.020;7.772;2023-08-20T02:22:00;20.50;99.90
19665;DHT22;9980;51.020;7.772;2023-08-20T02:24:27;20.50;99.90
19665;DHT22;9980;51.020;7.772;2023-08-20T02:26:54;20.50;99.90
19665;DHT22;9980;51.020;7.772;2023-08-20T02:29:21;20.50;99.90
19665;DHT22;9980;51.020;7.772;2023-08-20T02:31:48;20.50;99.90
19665;DHT22;9980;51.020;7.772;2023-08-20T02:34:16;20.50;99.90
19665;DHT22;9980;51.020;7.772;2023-08-20T02:36:43;20.50;99.90
19665;DHT22;9980;51.020;7.772;2023-08-20T02:39:10;20.50;99.90
19665;DHT22;9980;51.020;7.772;2023-08-20T02:41:37;20.50;99.90
19665;DHT22;9980;51.020;7.772;2023-08-20T02:44:04;20.50;99.90
19665;DHT22;9980;51.020;7.772;2023-08-20T02:46:31;20.50;99.90
19665;DHT22;9980;51.020;7.772;2023-08-20T02:48:58;20.50;99.90
19665;DHT22;9980;51.020;7.772;2023-08-20T02:51:27;20.50;99.90
19665;DHT22;9980;51.020;7.772;2023-08-20T02:53:54;20.50;99.90
19665;DHT22;9980;51.020;7.772;2023-08-20T02:56:21;20.50;99.90
19665;DHT22;9980;51.020;7.772;2023-08-20T02:58:48;20.50;99.90
19665;DHT22;9980;51.020;7.772;2023-08-20T03:01:22;20.50;99.90
19665;DHT22;9980;51.020;7.772;2023-08-20T03:03:51;20.40;99.90
19665;DHT22;9980;51.020;7.772;2023-08-20T03:06:18;20.50;99.90
19665;DHT22;9980;51.020;7.772;2023-08-20T03:08:45;20.40;99.90
19665;DHT22;9980;51.020;7.772;2023-08-20T03:11:12;20.40;99.90
19665;DHT22;9980;51.020;7.772;2023-08-20T03:13:39;20.40;99.90
19665;DHT22;9980;51.020;7.772;2023-08-20T03:16:06;20.40;99.90
19665;DHT22;9980;51.020;7.772;2023-08-20T03:18:33;20.40;99.90
19665;DHT22;9980;51.020;7.772;2023-08-20T03:21:00;20.30;99.90
19665;DHT22;9980;51.020;7.772;2023-08-20T03:23:27;20.30;99.90
19665;DHT22;9980;51.020;7.772;2023-08-20T03:25:57;20.30;99.90
19665;DHT22;9980;51.020;7.772;2023-08-20T03:28:25;20.30;99.90
19665;DHT22;9980;51.020;7.772;2023-08-20T03:30:53;20.30;99.90
19665;DHT22;9980;51.020;7.772;2023-08-20T03:33:24;20.30;99.90
19665;DHT22;9980;51.020;7.772;2023-08-20T03:35:52;20.30;99.90
19665;DHT22;9980;51.020;7.772;2023-08-20T03:38:19;20.30;99.90
19665;DHT22;9980;51.020;7.772;2023-08-20T03:40:46;20.30;99.90
19665;DHT22;9980;51.020;7.772;2023-08-20T03:43:12;20.30;99.90
19665;DHT22;9980;51.020;7.772;2023-08-20T03:45:39;20.30;99.90
19665;DHT22;9980;51.020;7.772;2023-08-20T03:48:07;20.20;99.90
19665;DHT22;9980;51.020;7.772;2023-08-20T03:50:34;20.20;99.90
19665;DHT22;9980;51.020;7.772;2023-08-20T03:53:01;20.20;99.90
19665;DHT22;9980;51.020;7.772;2023-08-20T03:55:28;20.20;99.90
19665;DHT22;9980;51.020;7.772;2023-08-20T03:57:55;20.20;99.90
19665;DHT22;9980;51.020;7.772;2023-08-20T04:00:22;20.20;99.90
19665;DHT22;9980;51.020;7.772;2023-08-20T04:02:49;20.20;99.90
19665;DHT22;9980;51.020;7.772;2023-08-20T04:05:16;20.20;99.90
19665;DHT22;9980;51.020;7.772;2023-08-20T04:07:43;20.20;99.90
19665;DHT22;9980;51.020;7.772;2023-08-20T04:10:10;20.10;99.90
19665;DHT22;9980;51.020;7.772;2023-08-20T04:12:37;20.20;99.90
19665;DHT22;9980;51.020;7.772;2023-08-20T04:15:04;20.10;99.90
19665;DHT22;9980;51.020;7.772;2023-08-20T04:17:32;20.10;99.90
19665;DHT22;9980;51.020;7.772;2023-08-20T04:20:00;20.10;99.90
19665;DHT22;9980;51.020;7.772;2023-08-20T04:22:27;20.10;99.90
19665;DHT22;9980;51.020;7.772;2023-08-20T04:24:56;20.10;99.90
19665;DHT22;9980;51.020;7.772;2023-08-20T04:27:24;20.10;99.90
19665;DHT22;9980;51.020;7.772;2023-08-20T04:29:52;20.10;99.90
19665;DHT22;9980;51.020;7.772;2023-08-20T04:32:19;20.00;99.90
19665;DHT22;9980;51.020;7.772;2023-08-20T04:34:49;20.00;99.90
19665;DHT22;9980;51.020;7.772;2023-08-20T04:37:19;20.00;99.90
19665;DHT22;9980;51.020;7.772;2023-08-20T04:39:46;20.00;99.90
19665;DHT22;9980;51.020;7.772;2023-08-20T04:42:14;20.00;99.90
19665;DHT22;9980;51.020;7.772;2023-08-20T04:44:41;20.00;99.90
19665;DHT22;9980;51.020;7.772;2023-08-20T04:47:11;20.00;99.90
19665;DHT22;9980;51.020;7.772;2023-08-20T04:49:42;20.00;99.90
19665;DHT22;9980;51.020;7.772;2023-08-20T04:52:09;20.00;99.90
19665;DHT22;9980;51.020;7.772;2023-08-20T04:54:36;20.00;99.90
19665;DHT22;9980;51.020;7.772;2023-08-20T04:57:03;20.00;99.90
19665;DHT22;9980;51.020;7.772;2023-08-20T04:59:30;20.00;99.90
19665;DHT22;9980;51.020;7.772;2023-08-20T05:02:16;20.00;99.90
19665;DHT22;9980;51.020;7.772;2023-08-20T05:04:49;20.10;99.90
19665;DHT22;9980;51.020;7.772;2023-08-20T05:07:17;20.10;99.90
19665;DHT22;9980;51.020;7.772;2023-08-20T05:09:44;20.10;99.90
19665;DHT22;9980;51.020;7.772;2023-08-20T05:12:11;20.10;99.90
19665;DHT22;9980;51.020;7.772;2023-08-20T05:14:38;20.20;99.90
19665;DHT22;9980;51.020;7.772;2023-08-20T05:17:06;20.20;99.90
19665;DHT22;9980;51.020;7.772;2023-08-20T05:19:33;20.20;99.90
19665;DHT22;9980;51.020;7.772;2023-08-20T05:22:00;20.30;99.90
19665;DHT22;9980;51.020;7.772;2023-08-20T05:24:32;20.30;99.90
19665;DHT22;9980;51.020;7.772;2023-08-20T05:27:11;20.40;99.90
19665;DHT22;9980;51.020;7.772;2023-08-20T05:29:43;20.40;99.90
19665;DHT22;9980;51.020;7.772;2023-08-20T05:32:11;20.40;99.90
19665;DHT22;9980;51.020;7.772;2023-08-20T05:34:38;20.50;99.90
19665;DHT22;9980;51.020;7.772;2023-08-20T05:37:05;20.50;99.90
19665;DHT22;9980;51.020;7.772;2023-08-20T05:39:43;20.50;99.90
19665;DHT22;9980;51.020;7.772;2023-08-20T05:42:12;20.50;99.90
19665;DHT22;9980;51.020;7.772;2023-08-20T05:44:43;20.50;99.90
19665;DHT22;9980;51.020;7.772;2023-08-20T05:47:14;20.60;99.90
19665;DHT22;9980;51.020;7.772;2023-08-20T05:49:41;20.60;99.90
19665;DHT22;9980;51.020;7.772;2023-08-20T05:52:08;20.60;99.90
19665;DHT22;9980;51.020;7.772;2023-08-20T05:54:36;20.70;99.90
19665;DHT22;9980;51.020;7.772;2023-08-20T05:57:03;20.70;99.90
19665;DHT22;9980;51.020;7.772;2023-08-20T05:59:31;20.80;99.90
19665;DHT22;9980;51.020;7.772;2023-08-20T06:01:58;20.90;99.90
19665;DHT22;9980;51.020;7.772;2023-08-20T06:04:25;20.90;99.90
19665;DHT22;9980;51.020;7.772;2023-08-20T06:06:52;21.00;99.90
19665;DHT22;9980;51.020;7.772;2023-08-20T06:09:19;21.00;99.90
19665;DHT22;9980;51.020;7.772;2023-08-20T06:11:46;21.10;99.90
19665;DHT22;9980;51.020;7.772;2023-08-20T06:14:13;21.10;99.90
19665;DHT22;9980;51.020;7.772;2023-08-20T06:16:40;21.20;99.90
19665;DHT22;9980;51.020;7.772;2023-08-20T06:19:07;21.30;99.90
19665;DHT22;9980;51.020;7.772;2023-08-20T06:21:37;21.40;99.90
19665;DHT22;9980;51.020;7.772;2023-08-20T06:24:04;21.50;99.90
19665;DHT22;9980;51.020;7.772;2023-08-20T06:26:34;21.50;99.90
19665;DHT22;9980;51.020;7.772;2023-08-20T06:29:01;21.70;99.90
19665;DHT22;9980;51.020;7.772;2023-08-20T06:31:28;21.80;99.90
19665;DHT22;9980;51.020;7.772;2023-08-20T06:33:55;21.80;99.90
19665;DHT22;9980;51.020;7.772;2023-08-20T06:36:22;21.90;99.90
19665;DHT22;9980;51.020;7.772;2023-08-20T06:38:49;22.00;99.90
19665;DHT22;9980;51.020;7.772;2023-08-20T06:41:17;22.10;99.90
19665;DHT22;9980;51.020;7.772;2023-08-20T06:43:44;22.20;99.90
19665;DHT22;9980;51.020;7.772;2023-08-20T06:46:13;22.20;99.90
19665;DHT22;9980;51.020;7.772;2023-08-20T06:48:41;22.30;99.90
19665;DHT22;9980;51.020;7.772;2023-08-20T06:51:14;22.40;99.90
19665;DHT22;9980;51.020;7.772;2023-08-20T06:53:46;22.50;99.90
19665;DHT22;9980;51.020;7.772;2023-08-20T06:56:14;22.60;99.90
19665;DHT22;9980;51.020;7.772;2023-08-20T06:58:42;22.70;99.90
19665;DHT22;9980;51.020;7.772;2023-08-20T07:01:09;22.70;99.90
19665;DHT22;9980;51.020;7.772;2023-08-20T07:03:41;22.90;99.90
19665;DHT22;9980;51.020;7.772;2023-08-20T07:06:10;23.00;99.90
19665;DHT22;9980;51.020;7.772;2023-08-20T07:08:38;23.10;99.90
19665;DHT22;9980;51.020;7.772;2023-08-20T07:11:06;23.20;99.90
19665;DHT22;9980;51.020;7.772;2023-08-20T07:13:33;23.30;99.90
19665;DHT22;9980;51.020;7.772;2023-08-20T07:16:00;23.30;99.90
19665;DHT22;9980;51.020;7.772;2023-08-20T07:18:27;23.50;99.90
19665;DHT22;9980;51.020;7.772;2023-08-20T07:20:55;23.50;99.90
19665;DHT22;9980;51.020;7.772;2023-08-20T07:23:23;23.60;99.90
19665;DHT22;9980;51.020;7.772;2023-08-20T07:25:50;23.70;99.90
19665;DHT22;9980;51.020;7.772;2023-08-20T07:28:19;23.80;99.90
19665;DHT22;9980;51.020;7.772;2023-08-20T07:31:15;23.80;99.90
19665;DHT22;9980;51.020;7.772;2023-08-20T07:33:46;24.00;99.90
19665;DHT22;9980;51.020;7.772;2023-08-20T07:36:17;24.00;99.90
19665;DHT22;9980;51.020;7.772;2023-08-20T07:38:44;24.10;99.90
19665;DHT22;9980;51.020;7.772;2023-08-20T07:41:11;24.20;99.90
19665;DHT22;9980;51.020;7.772;2023-08-20T07:43:41;24.30;99.90
19665;DHT22;9980;51.020;7.772;2023-08-20T07:46:09;24.40;99.90
19665;DHT22;9980;51.020;7.772;2023-08-20T07:48:36;24.50;99.90
19665;DHT22;9980;51.020;7.772;2023-08-20T07:51:03;24.60;99.90
19665;DHT22;9980;51.020;7.772;2023-08-20T07:53:31;24.70;99.90
19665;DHT22;9980;51.020;7.772;2023-08-20T07:56:00;24.80;99.90
19665;DHT22;9980;51.020;7.772;2023-08-20T07:58:27;25.00;99.90
19665;DHT22;9980;51.020;7.772;2023-08-20T08:00:57;25.10;99.90
19665;DHT22;9980;51.020;7.772;2023-08-20T08:03:25;25.20;99.90
19665;DHT22;9980;51.020;7.772;2023-08-20T08:05:55;25.30;99.90
19665;DHT22;9980;51.020;7.772;2023-08-20T08:08:23;25.40;99.90
19665;DHT22;9980;51.020;7.772;2023-08-20T08:10:50;25.50;99.90
19665;DHT22;9980;51.020;7.772;2023-08-20T08:13:20;25.60;99.90
19665;DHT22;9980;51.020;7.772;2023-08-20T08:15:48;25.80;99.90
19665;DHT22;9980;51.020;7.772;2023-08-20T08:18:16;25.90;99.90
19665;DHT22;9980;51.020;7.772;2023-08-20T08:20:43;26.00;99.90
19665;DHT22;9980;51.020;7.772;2023-08-20T08:23:10;26.10;99.90
19665;DHT22;9980;51.020;7.772;2023-08-20T08:25:39;26.20;99.90
19665;DHT22;9980;51.020;7.772;2023-08-20T08:28:07;26.30;99.90
19665;DHT22;9980;51.020;7.772;2023-08-20T08:30:34;26.40;99.90
19665;DHT22;9980;51.020;7.772;2023-08-20T08:33:01;26.50;99.90
19665;DHT22;9980;51.020;7.772;2023-08-20T08:35:28;26.70;99.90
19665;DHT22;9980;51.020;7.772;2023-08-20T08:37:55;26.70;99.90
19665;DHT22;9980;51.020;7.772;2023-08-20T08:40:28;26.80;99.90
19665;DHT22;9980;51.020;7.772;2023-08-20T08:42:56;26.90;99.80
19665;DHT22;9980;51.020;7.772;2023-08-20T08:45:26;27.00;99.90
19665;DHT22;9980;51.020;7.772;2023-08-20T08:47:54;27.10;99.90
19665;DHT22;9980;51.020;7.772;2023-08-20T08:50:21;27.20;99.90
19665;DHT22;9980;51.020;7.772;2023-08-20T08:52:53;27.30;99.80
19665;DHT22;9980;51.020;7.772;2023-08-20T08:55:20;27.40;99.50
19665;DHT22;9980;51.020;7.772;2023-08-20T08:57:47;27.40;99.60
19665;DHT22;9980;51.020;7.772;2023-08-20T09:00:14;27.50;99.30
19665;DHT22;9980;51.020;7.772;2023-08-20T09:02:42;27.60;99.20
19665;DHT22;9980;51.020;7.772;2023-08-20T09:05:09;27.70;99.20
19665;DHT22;9980;51.020;7.772;2023-08-20T09:07:44;27.80;99.30
19665;DHT22;9980;51.020;7.772;2023-08-20T09:10:11;27.90;98.70
19665;DHT22;9980;51.020;7.772;2023-08-20T09:12:39;27.90;98.70
19665;DHT22;9980;51.020;7.772;2023-08-20T09:15:10;28.10;99.60
19665;DHT22;9980;51.020;7.772;2023-08-20T09:17:41;28.20;99.30
19665;DHT22;9980;51.020;7.772;2023-08-20T09:20:08;28.20;99.00
19665;DHT22;9980;51.020;7.772;2023-08-20T09:22:36;28.30;98.70
19665;DHT22;9980;51.020;7.772;2023-08-20T09:25:04;28.40;99.00
19665;DHT22;9980;51.020;7.772;2023-08-20T09:27:38;28.60;98.70
19665;DHT22;9980;51.020;7.772;2023-08-20T09:30:09;28.70;98.20
19665;DHT22;9980;51.020;7.772;2023-08-20T09:32:44;28.80;98.30
19665;DHT22;9980;51.020;7.772;2023-08-20T09:35:18;28.90;98.10
19665;DHT22;9980;51.020;7.772;2023-08-20T09:37:45;28.90;97.90
19665;DHT22;9980;51.020;7.772;2023-08-20T09:40:12;29.10;98.10
19665;DHT22;9980;51.020;7.772;2023-08-20T09:42:39;29.10;97.50
19665;DHT22;9980;51.020;7.772;2023-08-20T09:45:07;29.20;97.70
19665;DHT22;9980;51.020;7.772;2023-08-20T09:47:36;29.30;97.50
19665;DHT22;9980;51.020;7.772;2023-08-20T09:50:10;29.40;97.20
19665;DHT22;9980;51.020;7.772;2023-08-20T09:52:40;29.50;96.80
19665;DHT22;9980;51.020;7.772;2023-08-20T09:55:16;29.60;97.60
19665;DHT22;9980;51.020;7.772;2023-08-20T09:57:47;29.70;96.70
19665;DHT22;9980;51.020;7.772;2023-08-20T10:00:15;29.70;97.40
19665;DHT22;9980;51.020;7.772;2023-08-20T10:02:42;29.90;96.70
19665;DHT22;9980;51.020;7.772;2023-08-20T10:05:11;30.00;96.40
19665;DHT22;9980;51.020;7.772;2023-08-20T10:07:39;30.00;95.70
19665;DHT22;9980;51.020;7.772;2023-08-20T10:10:08;30.10;96.10
19665;DHT22;9980;51.020;7.772;2023-08-20T10:12:39;30.20;95.50
19665;DHT22;9980;51.020;7.772;2023-08-20T10:15:11;30.20;95.50
19665;DHT22;9980;51.020;7.772;2023-08-20T10:17:42;30.30;95.20
19665;DHT22;9980;51.020;7.772;2023-08-20T10:20:13;30.40;95.30
19665;DHT22;9980;51.020;7.772;2023-08-20T10:22:43;30.50;95.20
19665;DHT22;9980;51.020;7.772;2023-08-20T10:25:21;30.50;94.90
19665;DHT22;9980;51.020;7.772;2023-08-20T10:27:50;30.60;94.50
19665;DHT22;9980;51.020;7.772;2023-08-20T10:30:19;30.70;94.80
19665;DHT22;9980;51.020;7.772;2023-08-20T10:32:53;30.80;94.70
19665;DHT22;9980;51.020;7.772;2023-08-20T10:35:26;30.90;94.80
19665;DHT22;9980;51.020;7.772;2023-08-20T10:38:05;31.00;94.20
19665;DHT22;9980;51.020;7.772;2023-08-20T10:40:56;31.10;94.80
19665;DHT22;9980;51.020;7.772;2023-08-20T10:43:37;31.10;93.40
19665;DHT22;9980;51.020;7.772;2023-08-20T10:49:04;31.30;93.30
19665;DHT22;9980;51.020;7.772;2023-08-20T10:51:34;31.40;93.90
19665;DHT22;9980;51.020;7.772;2023-08-20T10:54:06;31.50;94.00
19665;DHT22;9980;51.020;7.772;2023-08-20T10:56:48;31.60;92.70
19665;DHT22;9980;51.020;7.772;2023-08-20T10:59:22;31.70;93.20
19665;DHT22;9980;51.020;7.772;2023-08-20T11:01:54;31.80;93.50
19665;DHT22;9980;51.020;7.772;2023-08-20T11:04:28;31.90;92.60
19665;DHT22;9980;51.020;7.772;2023-08-20T11:07:01;32.00;92.50
19665;DHT22;9980;51.020;7.772;2023-08-20T11:09:30;32.00;92.90
19665;DHT22;9980;51.020;7.772;2023-08-20T11:11:59;32.10;92.40
19665;DHT22;9980;51.020;7.772;2023-08-20T11:14:26;32.20;92.60
19665;DHT22;9980;51.020;7.772;2023-08-20T11:16:53;32.30;92.20
19665;DHT22;9980;51.020;7.772;2023-08-20T11:19:22;32.30;92.30
19665;DHT22;9980;51.020;7.772;2023-08-20T11:21:50;32.40;91.00
19665;DHT22;9980;51.020;7.772;2023-08-20T11:24:19;32.50;91.80
19665;DHT22;9980;51.020;7.772;2023-08-20T11:26:47;32.60;91.80
19665;DHT22;9980;51.020;7.772;2023-08-20T11:29:15;32.60;91.40
19665;DHT22;9980;51.020;7.772;2023-08-20T11:31:49;32.70;91.00
19665;DHT22;9980;51.020;7.772;2023-08-20T11:34:20;32.80;91.00
19665;DHT22;9980;51.020;7.772;2023-08-20T11:36:54;32.80;90.30
19665;DHT22;9980;51.020;7.772;2023-08-20T11:39:23;32.80;90.30
19665;DHT22;9980;51.020;7.772;2023-08-20T11:41:51;32.90;90.20
19665;DHT22;9980;51.020;7.772;2023-08-20T11:44:22;33.00;90.10
19665;DHT22;9980;51.020;7.772;2023-08-20T11:46:49;33.00;89.10
19665;DHT22;9980;51.020;7.772;2023-08-20T11:49:16;33.10;90.10
19665;DHT22;9980;51.020;7.772;2023-08-20T11:51:47;33.10;89.00
19665;DHT22;9980;51.020;7.772;2023-08-20T11:54:18;33.20;87.60
19665;DHT22;9980;51.020;7.772;2023-08-20T11:56:50;33.30;89.20
19665;DHT22;9980;51.020;7.772;2023-08-20T11:59:19;33.30;87.30
19665;DHT22;9980;51.020;7.772;2023-08-20T12:01:51;33.40;89.10
19665;DHT22;9980;51.020;7.772;2023-08-20T12:04:25;33.50;88.50
19665;DHT22;9980;51.020;7.772;2023-08-20T12:07:09;33.60;88.50
19665;DHT22;9980;51.020;7.772;2023-08-20T12:09:42;33.60;88.30
19665;DHT22;9980;51.020;7.772;2023-08-20T12:12:11;33.70;87.10
19665;DHT22;9980;51.020;7.772;2023-08-20T12:14:38;33.70;88.00
19665;DHT22;9980;51.020;7.772;2023-08-20T12:17:06;33.80;86.50
19665;DHT22;9980;51.020;7.772;2023-08-20T12:19:33;33.80;86.50
19665;DHT22;9980;51.020;7.772;2023-08-20T12:22:00;33.80;86.70
19665;DHT22;9980;51.020;7.772;2023-08-20T12:24:27;33.90;86.30
19665;DHT22;9980;51.020;7.772;2023-08-20T12:26:54;33.90;84.70
19665;DHT22;9980;51.020;7.772;2023-08-20T12:29:21;33.80;85.00
19665;DHT22;9980;51.020;7.772;2023-08-20T12:31:50;33.80;85.60
19665;DHT22;9980;51.020;7.772;2023-08-20T12:34:17;33.80;85.30
19665;DHT22;9980;51.020;7.772;2023-08-20T12:36:44;33.80;84.30
19665;DHT22;9980;51.020;7.772;2023-08-20T12:39:11;33.70;84.00
19665;DHT22;9980;51.020;7.772;2023-08-20T12:41:38;33.70;86.50
19665;DHT22;9980;51.020;7.772;2023-08-20T12:44:05;33.60;84.90
19665;DHT22;9980;51.020;7.772;2023-08-20T12:46:32;33.60;86.20
19665;DHT22;9980;51.020;7.772;2023-08-20T12:48:59;33.70;86.80
19665;DHT22;9980;51.020;7.772;2023-08-20T12:51:27;33.80;84.90
19665;DHT22;9980;51.020;7.772;2023-08-20T12:53:54;33.90;84.40
19665;DHT22;9980;51.020;7.772;2023-08-20T12:56:21;33.90;85.30
19665;DHT22;9980;51.020;7.772;2023-08-20T12:58:53;34.10;84.50
19665;DHT22;9980;51.020;7.772;2023-08-20T13:01:20;34.20;83.30
19665;DHT22;9980;51.020;7.772;2023-08-20T13:03:48;34.20;84.00
19665;DHT22;9980;51.020;7.772;2023-08-20T13:06:15;34.30;83.20
19665;DHT22;9980;51.020;7.772;2023-08-20T13:08:57;34.30;82.00
19665;DHT22;9980;51.020;7.772;2023-08-20T13:11:25;34.30;82.40
19665;DHT22;9980;51.020;7.772;2023-08-20T13:13:54;34.30;82.40
19665;DHT22;9980;51.020;7.772;2023-08-20T13:16:21;34.30;81.70
19665;DHT22;9980;51.020;7.772;2023-08-20T13:18:49;34.30;80.90
19665;DHT22;9980;51.020;7.772;2023-08-20T13:21:16;34.30;81.90
19665;DHT22;9980;51.020;7.772;2023-08-20T13:23:43;34.30;82.20
19665;DHT22;9980;51.020;7.772;2023-08-20T13:26:11;34.40;81.50
19665;DHT22;9980;51.020;7.772;2023-08-20T13:28:37;34.40;81.00
19665;DHT22;9980;51.020;7.772;2023-08-20T13:31:05;34.40;80.90
19665;DHT22;9980;51.020;7.772;2023-08-20T13:33:32;34.50;81.10
19665;DHT22;9980;51.020;7.772;2023-08-20T13:35:59;34.60;79.90
19665;DHT22;9980;51.020;7.772;2023-08-20T13:38:27;34.60;79.90
19665;DHT22;9980;51.020;7.772;2023-08-20T13:40:54;34.60;79.10
19665;DHT22;9980;51.020;7.772;2023-08-20T13:43:22;34.70;79.90
19665;DHT22;9980;51.020;7.772;2023-08-20T13:45:50;34.70;79.90
19665;DHT22;9980;51.020;7.772;2023-08-20T13:48:17;34.80;78.80
19665;DHT22;9980;51.020;7.772;2023-08-20T13:50:47;34.80;78.40
19665;DHT22;9980;51.020;7.772;2023-08-20T13:53:14;34.70;77.20
19665;DHT22;9980;51.020;7.772;2023-08-20T13:55:41;34.70;76.90
19665;DHT22;9980;51.020;7.772;2023-08-20T13:58:08;34.60;76.00
19665;DHT22;9980;51.020;7.772;2023-08-20T14:00:36;34.60;76.90
19665;DHT22;9980;51.020;7.772;2023-08-20T14:03:03;34.50;77.50
19665;DHT22;9980;51.020;7.772;2023-08-20T14:05:30;34.40;77.60
19665;DHT22;9980;51.020;7.772;2023-08-20T14:07:58;34.40;77.50
19665;DHT22;9980;51.020;7.772;2023-08-20T14:10:24;34.40;76.60
19665;DHT22;9980;51.020;7.772;2023-08-20T14:12:51;34.30;75.20
19665;DHT22;9980;51.020;7.772;2023-08-20T14:15:20;34.30;76.40
19665;DHT22;9980;51.020;7.772;2023-08-20T14:17:47;34.30;74.90
19665;DHT22;9980;51.020;7.772;2023-08-20T14:20:14;34.20;75.30
19665;DHT22;9980;51.020;7.772;2023-08-20T14:22:41;34.20;76.80
19665;DHT22;9980;51.020;7.772;2023-08-20T14:25:09;34.20;75.90
19665;DHT22;9980;51.020;7.772;2023-08-20T14:27:36;34.20;76.10
19665;DHT22;9980;51.020;7.772;2023-08-20T14:30:04;34.20;76.50
19665;DHT22;9980;51.020;7.772;2023-08-20T14:32:32;34.20;77.40
19665;DHT22;9980;51.020;7.772;2023-08-20T14:35:01;34.20;76.30
19665;DHT22;9980;51.020;7.772;2023-08-20T14:37:31;34.20;76.60
19665;DHT22;9980;51.020;7.772;2023-08-20T14:39:58;34.20;76.50
19665;DHT22;9980;51.020;7.772;2023-08-20T14:42:25;34.20;76.20
19665;DHT22;9980;51.020;7.772;2023-08-20T14:44:52;34.20;76.50
19665;DHT22;9980;51.020;7.772;2023-08-20T14:47:20;34.20;76.00
19665;DHT22;9980;51.020;7.772;2023-08-20T14:49:47;34.20;75.20
19665;DHT22;9980;51.020;7.772;2023-08-20T14:52:15;34.20;76.80
19665;DHT22;9980;51.020;7.772;2023-08-20T14:54:46;34.20;76.10
19665;DHT22;9980;51.020;7.772;2023-08-20T14:57:13;34.10;74.60
19665;DHT22;9980;51.020;7.772;2023-08-20T14:59:43;34.10;75.80
19665;DHT22;9980;51.020;7.772;2023-08-20T15:02:10;34.10;74.60
19665;DHT22;9980;51.020;7.772;2023-08-20T15:04:38;34.00;73.70
19665;DHT22;9980;51.020;7.772;2023-08-20T15:07:05;33.90;74.70
19665;DHT22;9980;51.020;7.772;2023-08-20T15:09:32;33.80;74.50
19665;DHT22;9980;51.020;7.772;2023-08-20T15:12:10;33.80;75.10
19665;DHT22;9980;51.020;7.772;2023-08-20T15:14:45;33.80;75.50
19665;DHT22;9980;51.020;7.772;2023-08-20T15:17:14;33.70;76.00
19665;DHT22;9980;51.020;7.772;2023-08-20T15:19:41;33.70;75.50
19665;DHT22;9980;51.020;7.772;2023-08-20T15:22:08;33.70;75.40
19665;DHT22;9980;51.020;7.772;2023-08-20T15:24:36;33.70;74.50
19665;DHT22;9980;51.020;7.772;2023-08-20T15:27:03;33.70;75.30
19665;DHT22;9980;51.020;7.772;2023-08-20T15:29:30;33.60;76.40
19665;DHT22;9980;51.020;7.772;2023-08-20T15:31:58;33.60;76.70
19665;DHT22;9980;51.020;7.772;2023-08-20T15:34:25;33.60;75.30
19665;DHT22;9980;51.020;7.772;2023-08-20T15:36:52;33.60;75.40
19665;DHT22;9980;51.020;7.772;2023-08-20T15:39:19;33.60;75.30
19665;DHT22;9980;51.020;7.772;2023-08-20T15:41:46;33.60;74.90
19665;DHT22;9980;51.020;7.772;2023-08-20T15:44:13;33.50;74.90
19665;DHT22;9980;51.020;7.772;2023-08-20T15:46:40;33.50;75.50
19665;DHT22;9980;51.020;7.772;2023-08-20T15:49:07;33.50;74.90
19665;DHT22;9980;51.020;7.772;2023-08-20T15:51:35;33.50;74.30
19665;DHT22;9980;51.020;7.772;2023-08-20T15:54:05;33.50;73.80
19665;DHT22;9980;51.020;7.772;2023-08-20T15:56:32;33.50;73.30
19665;DHT22;9980;51.020;7.772;2023-08-20T15:58:59;33.40;73.80
19665;DHT22;9980;51.020;7.772;2023-08-20T16:01:26;33.40;74.00
19665;DHT22;9980;51.020;7.772;2023-08-20T16:03:55;33.30;73.80